Time;durP1;ratioP1;P1;durP2;ratioP2;P2;SDS_P1;SDS_P2;PMS_P1;PMS_P2;Temp;Humidity;BMP_temperature;BMP_pressure;BME280_temperature;BME280_humidity;BME280_pressure;Samples;Min_cycle;Max_cycle;Signal;HPM_P1;HPM_P2
2023/01/13 00:01:58;;;;;;;9.25;5.20;;;;;;;9.32;82.28;100212.06;5141383;27;20058;-67
2023/01/13 00:04:24;;;;;;;7.68;4.85;;;;;;;9.28;82.22;100211.53;5140825;27;20059;-68
2023/01/13 00:06:49;;;;;;;7.90;5.07;;;;;;;9.28;82.59;100208.88;5141865;27;20030;-68
2023/01/13 00:09:14;;;;;;;8.35;5.00;;;;;;;9.28;81.79;100214.16;5142166;27;20103;-68
2023/01/13 00:11:40;;;;;;;7.05;5.20;;;;;;;9.29;81.99;100214.03;5142532;27;20031;-69
2023/01/13 00:14:05;;;;;;;9.10;5.45;;;;;;;9.25;82.04;100201.25;5142176;27;20031;-69
2023/01/13 00:16:31;;;;;;;6.55;4.60;;;;;;;9.32;82.31;100212.06;5141537;27;20045;-68
2023/01/13 00:18:56;;;;;;;8.02;4.75;;;;;;;9.35;81.70;100204.69;5141513;27;20038;-68
2023/01/13 00:21:23;;;;;;;7.90;5.22;;;;;;;9.34;81.93;100208.31;5141742;27;20317;-68
2023/01/13 00:23:51;;;;;;;8.50;5.07;;;;;;;9.33;82.33;100205.81;5141710;27;20095;-69
2023/01/13 00:26:25;;;;;;;8.05;5.43;;;;;;;9.27;82.63;100207.22;5142095;27;20106;-68
2023/01/13 00:28:54;;;;;;;;;;;;;;;9.17;83.12;100212.53;5142819;27;20342;-68
2023/01/13 00:31:20;;;;;;;8.73;5.50;;;;;;;9.08;82.71;100201.97;5141523;27;20113;-68
2023/01/13 00:33:47;;;;;;;7.50;4.63;;;;;;;9.11;82.24;100209.63;5141645;27;20042;-68
2023/01/13 00:36:14;;;;;;;7.55;4.72;;;;;;;9.23;82.18;100211.94;5141996;27;20115;-68
2023/01/13 00:38:41;;;;;;;8.00;5.07;;;;;;;9.28;82.17;100211.53;5141320;27;20039;-69
2023/01/13 00:41:09;;;;;;;7.20;5.13;;;;;;;9.15;81.80;100205.72;5141325;27;20027;-68
2023/01/13 00:43:36;;;;;;;8.15;5.22;;;;;;;9.25;81.76;100211.81;5141903;27;20340;-68
2023/01/13 00:46:04;;;;;;;7.38;5.78;;;;;;;9.00;81.87;100202.66;5141161;27;20046;-69
2023/01/13 00:48:30;;;;;;;9.07;5.05;;;;;;;9.05;82.41;100210.19;5141255;27;20064;-69
2023/01/13 00:51:03;;;;;;;7.70;4.63;;;;;;;9.05;82.50;100204.91;5140472;27;20035;-68
2023/01/13 00:53:32;;;;;;;7.43;5.10;;;;;;;9.06;82.07;100206.56;5140269;27;20034;-68
2023/01/13 00:56:03;;;;;;;8.45;5.57;;;;;;;9.22;81.96;100206.81;5141362;27;20039;-68
2023/01/13 00:58:31;;;;;;;8.82;5.35;;;;;;;9.27;81.50;100205.41;5140835;27;20054;-68
2023/01/13 01:01:02;;;;;;;8.73;5.55;;;;;;;9.38;81.21;100199.16;5140903;27;20711;-68
2023/01/13 01:03:28;;;;;;;8.35;5.63;;;;;;;9.43;81.38;100199.56;5141184;27;20042;-69
2023/01/13 01:05:54;;;;;;;8.18;5.20;;;;;;;9.49;81.11;100198.97;5141022;27;20247;-68
2023/01/13 01:08:19;;;;;;;9.88;6.28;;;;;;;9.48;80.57;100199.97;5140961;27;20054;-68
2023/01/13 01:10:44;;;;;;;9.45;6.25;;;;;;;9.53;80.51;100195.06;5140781;27;20103;-68
2023/01/13 01:13:13;;;;;;;8.98;6.03;;;;;;;9.46;80.69;100196.63;5141123;27;20049;-69
2023/01/13 01:15:40;;;;;;;8.45;5.38;;;;;;;9.44;80.67;100198.59;5140433;27;20045;-69
2023/01/13 01:18:05;;;;;;;10.25;5.75;;;;;;;9.47;80.77;100197.47;5140910;27;20098;-68
2023/01/13 01:20:31;;;;;;;9.32;5.82;;;;;;;9.53;80.46;100189.78;5140564;27;20047;-68
2023/01/13 01:22:56;;;;;;;11.05;5.65;;;;;;;9.51;80.50;100199.69;5140990;27;20229;-68
2023/01/13 01:25:22;;;;;;;6.95;4.85;;;;;;;9.63;80.13;100195.03;5140249;27;20043;-69
2023/01/13 01:27:47;;;;;;;6.90;4.63;;;;;;;9.56;79.45;100199.25;5140675;27;20027;-68
2023/01/13 01:30:13;;;;;;;7.05;4.97;;;;;;;9.39;79.80;100200.81;5139917;27;20329;-68
2023/01/13 01:32:38;;;;;;;6.18;4.15;;;;;;;9.49;79.81;100198.16;5140767;27;20346;-68
2023/01/13 01:35:04;;;;;;;8.55;5.10;;;;;;;9.37;79.63;100194.84;5140541;27;20046;-68
2023/01/13 01:37:30;;;;;;;6.70;4.25;;;;;;;9.29;79.96;100192.06;5140595;27;20292;-69
2023/01/13 01:39:55;;;;;;;5.38;3.88;;;;;;;9.40;79.82;100197.19;5140662;27;20023;-68
2023/01/13 01:45:21;;;;;;;6.47;3.95;;;;;;;9.63;78.95;100191.56;5133073;27;20100;-69
2023/01/13 01:47:52;;;;;;;5.45;4.18;;;;;;;9.50;79.31;100189.25;5139614;27;20031;-69
2023/01/13 01:50:18;;;;;;;8.02;5.03;;;;;;;9.60;78.88;100190.88;5139650;27;20047;-68
2023/01/13 01:52:49;;;;;;;11.50;5.32;;;;;;;9.70;79.03;100195.28;5139606;27;20030;-68
2023/01/13 01:55:28;;;;;;;7.72;5.28;;;;;;;9.76;78.96;100190.25;5139621;27;20072;-68
2023/01/13 01:58:08;;;;;;;7.97;4.88;;;;;;;9.83;79.07;100188.69;5139679;27;20096;-68
2023/01/13 02:00:34;;;;;;;7.13;4.57;;;;;;;9.93;78.47;100192.13;5140176;27;20096;-70
2023/01/13 02:03:00;;;;;;;7.57;4.95;;;;;;;9.91;78.23;100191.44;5140220;27;20068;-69
2023/01/13 02:05:25;;;;;;;5.93;4.30;;;;;;;9.89;78.14;100189.91;5139679;27;20059;-68
2023/01/13 02:07:53;;;;;;;5.63;4.10;;;;;;;10.01;77.54;100191.38;5140244;27;20031;-68
2023/01/13 02:10:22;;;;;;;4.85;3.88;;;;;;;10.02;77.43;100195.69;5139020;27;20123;-67
2023/01/13 02:12:49;;;;;;;5.25;4.00;;;;;;;10.07;77.83;100197.91;5139697;27;20034;-69
2023/01/13 02:15:21;;;;;;;5.95;3.97;;;;;;;10.06;77.39;100189.13;5138404;27;20156;-68
2023/01/13 02:18:10;;;;;;;6.00;3.40;;;;;;;10.02;77.53;100187.75;5139251;27;20038;-68
2023/01/13 02:20:48;;;;;;;6.00;3.60;;;;;;;10.03;78.28;100183.31;5132537;27;20031;-68
2023/01/13 02:26:25;;;;;;;5.63;3.80;;;;;;;9.84;78.44;100193.00;5139911;27;20124;-69
2023/01/13 02:32:03;;;;;;;9.00;4.72;;;;;;;9.70;78.96;100190.00;5139022;27;20395;-68
2023/01/13 02:34:48;;;;;;;7.60;4.50;;;;;;;9.60;79.47;100193.53;5138485;27;20058;-68
2023/01/13 02:37:17;;;;;;;8.80;5.28;;;;;;;9.57;79.37;100198.25;5137725;27;20042;-68
2023/01/13 02:40:16;;;;;;;7.38;4.35;;;;;;;9.48;80.07;100199.97;5138337;27;20224;-69
2023/01/13 02:45:45;;;;;;;6.07;4.43;;;;;;;9.53;80.15;100202.16;5138966;27;20091;-68
2023/01/13 02:48:14;;;;;;;7.85;4.80;;;;;;;9.43;80.30;100202.19;5151727;27;20027;-68
2023/01/13 02:50:48;;;;;;;12.07;6.25;;;;;;;9.51;80.45;100206.78;5137493;27;20054;-69
2023/01/13 02:53:20;;;;;;;8.93;5.75;;;;;;;9.56;79.56;100204.53;5136998;27;20328;-68
2023/01/13 02:55:50;;;;;;;6.57;4.82;;;;;;;9.55;80.17;100202.88;5137645;27;20043;-68
2023/01/13 02:58:21;;;;;;;5.63;4.10;;;;;;;9.56;80.06;100208.00;5138513;27;20038;-68
2023/01/13 03:00:47;;;;;;;7.20;3.78;;;;;;;9.55;80.21;100210.78;5138627;27;20240;-68
2023/01/13 03:03:13;;;;;;;4.93;3.80;;;;;;;9.56;79.87;100210.66;5138456;27;20039;-69
2023/01/13 03:05:42;;;;;;;7.05;3.58;;;;;;;9.60;80.58;100209.38;5137582;27;20394;-69
2023/01/13 03:08:13;;;;;;;4.82;3.22;;;;;;;9.64;79.88;100217.03;5137586;27;20102;-68
2023/01/13 03:11:02;;;;;;;5.53;4.07;;;;;;;9.69;80.15;100210.31;5137819;27;20035;-68
2023/01/13 03:13:56;;;;;;;5.28;3.60;;;;;;;9.77;79.18;100212.25;5137280;27;20339;-69
2023/01/13 03:16:46;;;;;;;6.03;3.42;;;;;;;9.69;79.24;100212.13;5137682;27;20113;-68
2023/01/13 03:19:40;;;;;;;5.57;3.75;;;;;;;9.63;79.72;100210.91;5137154;27;20043;-68
2023/01/13 03:22:41;;;;;;;5.05;2.95;;;;;;;9.51;79.96;100206.78;5133193;27;20088;-68
2023/01/13 03:25:15;;;;;;;5.38;3.33;;;;;;;9.50;79.88;100216.50;5126835;27;20043;-69
2023/01/13 03:28:06;;;;;;;;;;;;;;;9.46;79.96;100219.59;5133780;27;20075;-69
2023/01/13 03:30:43;;;;;;;7.40;3.83;;;;;;;9.38;79.85;100222.09;5130566;27;20595;-68
2023/01/13 03:33:17;;;;;;;5.82;3.25;;;;;;;9.28;79.69;100214.16;5135143;27;20035;-68
2023/01/13 03:35:47;;;;;;;5.10;3.50;;;;;;;9.27;79.73;100218.63;5136100;27;20046;-70
2023/01/13 03:38:18;;;;;;;4.45;3.22;;;;;;;9.23;80.29;100219.06;5137821;27;20039;-69
2023/01/13 03:40:55;;;;;;;3.55;2.80;;;;;;;9.41;79.45;100219.19;5136011;27;20218;-68
2023/01/13 03:46:31;;;;;;;3.95;2.85;;;;;;;9.39;79.86;100219.31;5134758;27;20069;-69
2023/01/13 03:48:59;;;;;;;3.90;2.85;;;;;;;9.59;79.96;100217.47;5134248;27;20599;-68
2023/01/13 03:51:29;;;;;;;5.32;3.08;;;;;;;9.71;79.25;100226.88;5136675;27;20068;-68
2023/01/13 03:54:01;;;;;;;5.15;2.63;;;;;;;9.78;79.00;100225.31;5135687;27;20358;-68
2023/01/13 03:56:46;;;;;;;4.07;2.60;;;;;;;9.76;78.46;100224.63;5136308;27;20041;-68
2023/01/13 03:59:19;;;;;;;7.97;3.85;;;;;;;9.71;78.76;100233.97;5135390;27;20043;-68
2023/01/13 04:01:49;;;;;;;6.72;3.58;;;;;;;9.65;78.67;100232.75;5134172;27;20042;-69
2023/01/13 04:04:22;;;;;;;5.25;3.17;;;;;;;9.59;79.17;100235.97;5136361;27;20032;-69
2023/01/13 04:07:04;;;;;;;7.43;3.83;;;;;;;9.53;79.29;100233.91;5136179;27;20039;-68
2023/01/13 04:09:35;;;;;;;7.43;3.85;;;;;;;9.44;79.91;100232.13;5132969;27;20198;-67
2023/01/13 04:12:09;;;;;;;6.68;4.00;;;;;;;9.40;79.81;100236.84;5134678;27;20027;-69
2023/01/13 04:14:36;;;;;;;5.97;4.00;;;;;;;9.44;79.89;100238.22;5135548;27;20198;-68
2023/01/13 04:17:01;;;;;;;5.32;3.38;;;;;;;9.44;80.31;100235.59;5134962;27;20058;-68
2023/01/13 04:19:26;;;;;;;4.93;3.17;;;;;;;9.41;79.77;100230.59;5135842;27;20221;-68
2023/01/13 04:21:52;;;;;;;3.70;2.85;;;;;;;9.34;80.57;100237.38;5134472;27;20091;-68
2023/01/13 04:24:17;;;;;;;7.70;4.18;;;;;;;9.33;80.93;100234.88;5134256;27;20027;-68
2023/01/13 04:26:43;;;;;;;7.43;4.70;;;;;;;9.28;80.62;100238.78;5134516;27;20035;-69
2023/01/13 04:29:08;;;;;;;6.25;4.13;;;;;;;9.24;80.19;100237.41;5134488;27;20027;-67
2023/01/13 04:31:34;;;;;;;6.68;3.75;;;;;;;9.17;80.46;100243.38;5133100;27;20083;-68
2023/01/13 04:33:59;;;;;;;7.10;4.20;;;;;;;9.16;80.83;100239.09;5133442;27;20088;-68
2023/01/13 04:36:26;;;;;;;5.18;3.35;;;;;;;9.18;80.62;100245.06;5135528;27;20221;-69
2023/01/13 04:38:53;;;;;;;4.97;3.85;;;;;;;9.22;80.45;100249.91;5134487;27;20027;-69
2023/01/13 04:41:18;;;;;;;5.07;3.85;;;;;;;9.07;81.16;100251.31;5135440;27;20326;-68
2023/01/13 04:43:44;;;;;;;5.90;4.22;;;;;;;9.15;81.34;100253.28;5134525;27;20042;-68
2023/01/13 04:46:09;;;;;;;5.32;3.60;;;;;;;9.18;81.28;100248.53;5135117;27;20031;-68
2023/01/13 04:48:35;;;;;;;6.43;3.78;;;;;;;9.22;80.67;100251.72;5134454;27;20050;-69
2023/01/13 04:51:00;;;;;;;5.47;3.65;;;;;;;9.28;80.41;100259.09;5136180;27;20043;-69
2023/01/13 04:53:26;;;;;;;3.60;3.30;;;;;;;9.40;80.12;100258.00;5133650;27;20039;-68
2023/01/13 04:55:51;;;;;;;6.15;3.75;;;;;;;9.44;80.30;100261.19;5135412;27;20047;-67
2023/01/13 04:58:17;;;;;;;6.07;2.90;;;;;;;9.11;80.26;100270.38;5134977;27;20067;-68
2023/01/13 05:00:42;;;;;;;6.90;3.88;;;;;;;9.19;80.97;100268.69;5139779;27;20035;-68
2023/01/13 05:03:08;;;;;;;5.47;3.42;;;;;;;9.35;80.58;100262.00;5133727;27;20082;-70
2023/01/13 05:05:33;;;;;;;5.65;3.25;;;;;;;9.26;80.52;100271.63;5135222;27;20270;-68
2023/01/13 05:07:59;;;;;;;6.15;3.45;;;;;;;9.42;80.52;100265.78;5134372;27;20162;-68
2023/01/13 05:10:25;;;;;;;5.38;3.88;;;;;;;9.44;80.15;100269.13;5133137;27;20045;-68
2023/01/13 05:18:19;;;;;;;8.60;4.18;;;;;;;9.48;79.87;100287.19;5135759;27;20332;-68
2023/01/13 05:20:45;;;;;;;12.60;6.80;;;;;;;9.42;80.64;100285.13;5133763;27;20047;-68
2023/01/13 05:25:55;;;;;;;25.02;11.75;;;;;;;9.35;80.99;100293.72;5135686;27;20110;-70
2023/01/13 05:28:20;;;;;;;30.67;15.60;;;;;;;9.24;81.54;100289.41;5133622;27;20425;-69
2023/01/13 05:30:48;;;;;;;23.98;14.20;;;;;;;9.15;82.57;100291.09;5136307;27;20324;-68
2023/01/13 05:33:16;;;;;;;37.58;19.58;;;;;;;9.40;81.89;100288.88;5135069;27;20030;-68
2023/01/13 05:35:43;;;;;;;31.02;16.20;;;;;;;9.53;81.45;100284.13;5133832;27;20043;-69
2023/01/13 05:38:10;;;;;;;24.95;11.82;;;;;;;9.53;81.71;100282.31;5135953;27;20250;-68
2023/01/13 05:43:24;;;;;;;11.77;7.15;;;;;;;9.65;81.34;100295.38;5132187;27;20229;-68
2023/01/13 05:45:52;;;;;;;13.23;7.15;;;;;;;9.58;82.27;100292.47;5134245;27;20045;-69
2023/01/13 05:48:19;;;;;;;19.05;8.32;;;;;;;9.53;82.48;100286.78;5133493;27;20049;-69
2023/01/13 05:50:46;;;;;;;14.50;7.20;;;;;;;9.50;82.67;100287.88;5133765;27;20042;-68
2023/01/13 05:53:12;;;;;;;21.77;8.32;;;;;;;9.35;83.00;100283.97;5135244;27;20038;-68
2023/01/13 05:55:39;;;;;;;25.05;9.73;;;;;;;9.12;83.67;100295.81;5133076;27;20063;-68
2023/01/13 05:58:05;;;;;;;10.88;6.40;;;;;;;9.16;84.10;100302.50;5135175;27;20063;-69
2023/01/13 06:00:30;;;;;;;13.65;6.68;;;;;;;9.17;83.94;100293.59;5132830;27;20079;-68
2023/01/13 06:02:56;;;;;;;10.32;5.72;;;;;;;9.29;84.08;100297.75;5133916;27;20305;-68
2023/01/13 06:05:21;;;;;;;5.70;3.65;;;;;;;9.34;83.91;100305.25;5132874;27;20046;-69
2023/01/13 06:07:47;;;;;;;6.82;4.10;;;;;;;9.46;83.65;100293.59;5135404;27;20050;-70
2023/01/13 06:10:12;;;;;;;5.45;4.25;;;;;;;9.30;85.00;100307.34;5133470;27;20035;-68
2023/01/13 06:12:38;;;;;;;8.73;5.50;;;;;;;9.38;85.18;100309.31;5134644;27;20038;-68
2023/01/13 06:15:03;;;;;;;8.13;4.57;;;;;;;9.55;84.99;100311.25;5131332;27;20775;-68
2023/01/13 06:17:29;;;;;;;11.98;6.55;;;;;;;9.59;84.44;100313.47;5133388;27;20054;-69
2023/01/13 06:19:54;;;;;;;9.95;6.30;;;;;;;9.65;84.25;100312.06;5133057;27;20075;-69
2023/01/13 06:22:27;;;;;;;10.93;6.18;;;;;;;9.73;84.14;100314.84;5135954;27;20333;-68
2023/01/13 06:24:53;;;;;;;15.48;10.18;;;;;;;9.77;84.45;100320.66;5133432;27;20048;-68
2023/01/13 06:27:20;;;;;;;19.40;8.63;;;;;;;9.85;84.07;100321.63;5132126;27;20039;-68
2023/01/13 06:29:45;;;;;;;15.25;7.65;;;;;;;9.86;84.22;100322.47;5133331;27;20354;-68
2023/01/13 06:32:18;;;;;;;10.77;6.40;;;;;;;9.64;85.04;100326.28;5132893;27;20089;-69
2023/01/13 06:34:49;;;;;;;9.18;6.25;;;;;;;9.43;87.26;100321.16;5133093;27;20038;-68
2023/01/13 06:37:20;;;;;;;8.15;5.88;;;;;;;9.51;88.00;100323.91;5133691;27;20076;-68
2023/01/13 06:39:47;;;;;;;9.32;6.32;;;;;;;9.54;87.73;100321.00;5133627;27;20062;-69
2023/01/13 06:44:57;;;;;;;9.45;6.38;;;;;;;9.63;88.35;100319.31;5132031;27;20038;-67
2023/01/13 06:47:22;;;;;;;9.88;7.63;;;;;;;9.72;87.75;100317.63;5131433;27;20316;-68
2023/01/13 06:49:48;;;;;;;11.77;7.10;;;;;;;9.68;88.00;100326.81;5132341;27;20031;-68
2023/01/13 06:52:13;;;;;;;12.43;9.00;;;;;;;9.41;88.71;100332.84;5130402;27;20054;-67
2023/01/13 06:54:39;;;;;;;12.63;9.25;;;;;;;9.41;89.77;100331.03;5134089;27;20035;-67
2023/01/13 06:57:04;;;;;;;13.95;9.40;;;;;;;9.45;90.42;100332.41;5132264;27;20042;-68
2023/01/13 06:59:33;;;;;;;11.05;8.60;;;;;;;9.51;90.05;100337.13;5131696;27;20057;-68
2023/01/13 07:01:58;;;;;;;13.25;8.95;;;;;;;9.47;90.27;100333.09;5125910;27;20038;-68
2023/01/13 07:04:24;;;;;;;15.57;9.23;;;;;;;9.54;89.60;100344.78;5130378;27;20039;-69
2023/01/13 07:06:49;;;;;;;19.90;9.30;;;;;;;9.62;89.44;100328.22;5129629;27;20402;-69
2023/01/13 07:09:15;;;;;;;17.50;11.40;;;;;;;9.57;89.57;100338.38;5133570;27;20030;-68
2023/01/13 07:11:40;;;;;;;25.67;22.27;;;;;;;9.40;90.83;100336.44;5131715;27;20038;-68
2023/01/13 07:16:50;;;;;;;;;;;;;;;9.61;90.10;100353.00;5132502;27;20038;-68
2023/01/13 07:19:22;;;;;;;17.80;11.60;;;;;;;9.58;89.73;100345.34;5130932;27;20125;-69
2023/01/13 07:21:47;;;;;;;19.17;10.98;;;;;;;9.48;90.43;100352.44;5129150;27;20027;-69
2023/01/13 07:24:13;;;;;;;15.55;9.82;;;;;;;9.64;89.60;100354.53;5130460;27;20335;-68
2023/01/13 07:26:38;;;;;;;12.85;9.10;;;;;;;9.62;88.59;100357.31;5115955;27;20337;-67
2023/01/13 07:29:03;;;;;;;12.88;8.40;;;;;;;9.56;88.74;100347.28;5130336;27;20037;-68
2023/01/13 07:31:29;;;;;;;78.72;28.15;;;;;;;9.57;89.48;100354.25;5132288;27;20087;-69
2023/01/13 07:33:55;;;;;;;66.38;24.10;;;;;;;9.70;88.79;100359.25;5133493;27;20062;-69
2023/01/13 07:36:20;;;;;;;29.40;14.32;;;;;;;9.72;88.39;100352.00;5132114;27;20043;-68
2023/01/13 07:38:46;;;;;;;55.15;20.35;;;;;;;9.71;87.99;100359.09;5132048;27;20910;-68
2023/01/13 07:44:05;;;;;;;25.02;11.15;;;;;;;9.80;87.83;100360.06;5100319;27;20058;-69
2023/01/13 07:46:31;;;;;;;12.90;7.63;;;;;;;9.86;87.45;100362.13;5131651;27;20096;-67
2023/01/13 07:48:56;;;;;;;20.38;9.63;;;;;;;9.95;87.23;100358.63;5132174;27;20039;-67
2023/01/13 07:51:22;;;;;;;10.48;7.07;;;;;;;9.91;86.27;100359.91;5131415;27;20065;-68
2023/01/13 07:53:48;;;;;;;9.05;6.28;;;;;;;9.77;87.56;100366.47;5133189;27;20031;-69
2023/01/13 07:56:14;;;;;;;11.40;7.00;;;;;;;9.68;87.77;100367.31;5132101;27;20050;-69
2023/01/13 07:58:40;;;;;;;8.55;6.07;;;;;;;9.65;87.34;100370.25;5131049;27;20039;-68
2023/01/13 08:01:11;;;;;;;10.13;6.78;;;;;;;9.46;87.83;100373.72;5130897;27;20050;-68
2023/01/13 08:03:37;;;;;;;9.85;6.85;;;;;;;9.45;89.00;100368.59;5130309;27;20127;-70
2023/01/13 08:06:04;;;;;;;10.85;6.80;;;;;;;9.09;90.46;100378.81;5131160;27;20111;-69
2023/01/13 08:08:29;;;;;;;12.32;7.43;;;;;;;9.19;90.61;100377.03;5131213;27;20027;-68
2023/01/13 08:10:59;;;;;;;10.45;7.15;;;;;;;9.23;89.48;100375.78;5130021;27;20083;-68
2023/01/13 08:13:24;;;;;;;12.02;7.05;;;;;;;9.30;89.20;100381.34;5134720;27;20034;-68
2023/01/13 08:15:52;;;;;;;10.43;7.15;;;;;;;9.45;89.30;100376.53;5134807;27;20233;-69
2023/01/13 08:18:20;;;;;;;11.27;7.43;;;;;;;9.53;87.67;100374.00;5133168;27;20039;-69
2023/01/13 08:20:47;;;;;;;11.52;6.60;;;;;;;9.65;87.77;100369.41;5138327;27;20036;-68
2023/01/13 08:23:14;;;;;;;11.70;7.50;;;;;;;9.79;87.95;100374.25;5134467;27;20019;-68
2023/01/13 08:25:39;;;;;;;18.23;10.48;;;;;;;9.87;86.80;100375.22;5135495;27;20096;-68
2023/01/13 08:28:05;;;;;;;11.07;7.38;;;;;;;9.99;86.63;100372.41;5136087;27;20080;-68
2023/01/13 08:30:30;;;;;;;13.40;8.50;;;;;;;10.00;86.14;100366.97;5132775;27;20096;-70
2023/01/13 08:32:56;;;;;;;15.10;9.35;;;;;;;10.09;85.96;100373.22;5137770;27;20031;-69
2023/01/13 08:35:21;;;;;;;13.98;8.38;;;;;;;10.04;85.49;100368.34;5132476;27;20042;-68
2023/01/13 08:37:48;;;;;;;13.63;8.15;;;;;;;10.16;84.67;100380.44;5138607;27;20036;-68
2023/01/13 08:40:14;;;;;;;14.68;9.40;;;;;;;10.06;85.25;100390.22;5134712;27;20368;-70
2023/01/13 08:42:40;;;;;;;12.45;8.15;;;;;;;10.15;84.29;100386.72;5133180;27;20055;-69
2023/01/13 08:45:07;;;;;;;33.95;14.93;;;;;;;10.19;83.76;100388.09;5136980;27;20039;-67
2023/01/13 08:47:33;;;;;;;23.42;10.93;;;;;;;10.09;83.90;100386.44;5136704;27;20062;-68
2023/01/13 08:49:58;;;;;;;20.52;9.80;;;;;;;10.15;84.17;100392.00;5139068;27;20081;-68
2023/01/13 08:52:24;;;;;;;8.25;6.00;;;;;;;10.20;83.46;100383.66;5138321;27;20050;-68
2023/01/13 08:54:49;;;;;;;13.80;8.05;;;;;;;10.24;82.68;100385.03;5138235;27;20038;-69
2023/01/13 08:57:15;;;;;;;11.95;7.25;;;;;;;10.33;82.63;100380.69;5138180;27;20035;-69
2023/01/13 08:59:42;;;;;;;13.57;8.88;;;;;;;10.47;82.75;100377.59;5139049;27;20038;-67
2023/01/13 09:02:17;;;;;;;12.65;7.60;;;;;;;10.32;83.98;100369.28;5138472;27;20331;-67
2023/01/13 09:04:43;;;;;;;12.93;7.45;;;;;;;10.42;83.97;100383.34;5137178;27;20055;-68
2023/01/13 09:07:09;;;;;;;11.05;7.20;;;;;;;10.42;83.72;100374.56;5119923;27;20393;-70
2023/01/13 09:09:34;;;;;;;10.23;6.85;;;;;;;10.19;84.48;100368.72;5138583;27;20721;-68
2023/01/13 09:14:44;;;;;;;10.93;6.60;;;;;;;9.85;86.17;100369.25;5138377;27;20266;-67
2023/01/13 09:17:09;;;;;;;11.15;6.75;;;;;;;10.10;84.98;100370.44;5138835;27;20039;-68
2023/01/13 09:19:35;;;;;;;9.32;7.22;;;;;;;10.17;85.28;100366.22;5139515;27;20298;-67
2023/01/13 09:22:01;;;;;;;11.23;7.35;;;;;;;10.27;83.53;100363.59;5139099;27;20344;-67
2023/01/13 09:24:27;;;;;;;11.35;7.15;;;;;;;10.11;83.94;100364.16;5139763;27;20037;-68
2023/01/13 09:26:53;;;;;;;12.15;8.05;;;;;;;10.29;83.38;100366.09;5139305;27;20099;-68
2023/01/13 09:29:18;;;;;;;11.48;7.28;;;;;;;10.49;83.52;100352.66;5139712;27;20031;-69
2023/01/13 09:31:44;;;;;;;16.83;10.05;;;;;;;10.51;83.12;100352.50;5139708;27;20070;-69
2023/01/13 09:36:58;;;;;;;15.10;7.80;;;;;;;10.62;82.25;100351.47;5139529;27;20072;-68
2023/01/13 09:39:23;;;;;;;13.43;8.20;;;;;;;10.66;82.31;100348.38;5139495;27;20047;-69
2023/01/13 09:45:01;;;;;;;18.17;10.60;;;;;;;10.69;83.57;100358.69;5138513;27;20034;-68
2023/01/13 09:47:34;;;;;;;13.60;8.98;;;;;;;10.74;83.91;100353.78;5139355;27;20383;-68
2023/01/13 09:50:44;;;;;;;17.27;9.95;;;;;;;10.74;82.43;100345.00;5139350;27;20031;-69
2023/01/13 09:53:21;;;;;;;17.15;10.23;;;;;;;10.84;82.86;100349.25;5065385;27;20076;-68
2023/01/13 09:55:47;;;;;;;80.82;29.58;;;;;;;10.81;82.40;100343.41;5139323;27;20228;-68
2023/01/13 09:58:16;;;;;;;22.33;10.27;;;;;;;10.59;83.19;100334.06;5139125;27;20031;-68
2023/01/13 10:01:06;;;;;;;16.45;10.27;;;;;;;10.78;83.27;100336.59;5139285;27;20183;-68
2023/01/13 10:03:33;;;;;;;14.70;9.95;;;;;;;10.85;82.41;100336.84;5138897;27;20196;-70
2023/01/13 10:06:16;;;;;;;20.80;11.55;;;;;;;10.74;83.48;100335.22;5138983;27;20109;-68
2023/01/13 10:08:44;;;;;;;19.63;11.90;;;;;;;10.72;84.13;100331.91;5138549;27;20330;-68
2023/01/13 10:14:33;;;;;;;16.88;10.20;;;;;;;10.87;84.24;100329.56;5112447;27;20274;-68
2023/01/13 10:17:24;;;;;;;19.35;12.32;;;;;;;10.93;83.23;100330.78;5138250;27;20043;-68
2023/01/13 10:20:15;;;;;;;22.27;9.90;;;;;;;10.98;82.49;100321.41;5139159;27;20027;-68
2023/01/13 10:23:00;;;;;;;15.98;10.05;;;;;;;11.03;82.67;100313.84;5137870;27;20115;-68
2023/01/13 10:26:00;;;;;;;16.75;10.48;;;;;;;11.06;81.66;100316.19;5138524;27;20237;-69
2023/01/13 10:28:26;;;;;;;17.85;10.23;;;;;;;11.03;81.98;100316.50;5138483;27;20026;-68
2023/01/13 10:30:51;;;;;;;18.45;11.85;;;;;;;11.13;81.64;100304.00;5138042;27;20377;-68
2023/01/13 10:33:24;;;;;;;16.92;10.27;;;;;;;11.17;82.25;100301.88;5138657;27;20073;-67
2023/01/13 10:35:57;;;;;;;20.15;11.77;;;;;;;11.12;81.51;100297.03;5138716;27;20103;-68
2023/01/13 10:38:23;;;;;;;;;;;;;;;11.16;81.40;100292.25;5138458;27;20023;-69
2023/01/13 10:40:52;;;;;;;17.98;11.32;;;;;;;11.14;83.08;100291.56;5138682;27;19930;-68
2023/01/13 10:43:17;;;;;;;20.20;11.75;;;;;;;11.15;81.40;100290.59;5137187;27;20042;-68
2023/01/13 10:45:54;;;;;;;18.00;11.43;;;;;;;11.10;81.57;100287.56;5138149;27;20035;-68
2023/01/13 10:48:19;;;;;;;20.90;12.27;;;;;;;11.14;82.27;100284.47;5137917;27;20072;-67
2023/01/13 10:50:47;;;;;;;19.83;11.55;;;;;;;11.26;82.17;100278.91;5136755;27;20042;-69
2023/01/13 10:53:23;;;;;;;17.92;11.73;;;;;;;11.30;82.02;100277.63;5138157;27;20335;-69
2023/01/13 10:56:03;;;;;;;19.67;11.20;;;;;;;11.26;82.73;100271.78;5137814;27;20035;-67
2023/01/13 10:58:28;;;;;;;19.98;11.63;;;;;;;11.28;81.77;100274.28;5137802;27;20031;-68
2023/01/13 11:01:03;;;;;;;20.48;11.75;;;;;;;11.30;81.85;100269.66;5138446;27;20335;-68
2023/01/13 11:03:40;;;;;;;13.60;9.32;;;;;;;11.32;82.04;100273.00;5137435;27;20102;-68
2023/01/13 11:06:08;;;;;;;16.50;10.60;;;;;;;11.35;81.74;100270.03;5137977;27;20051;-69
2023/01/13 11:08:45;;;;;;;15.57;9.48;;;;;;;11.38;82.71;100259.97;5135008;27;20027;-69
2023/01/13 11:11:32;;;;;;;18.05;10.75;;;;;;;11.25;82.28;100269.31;5137512;27;20109;-68
2023/01/13 11:16:51;;;;;;;19.80;11.23;;;;;;;11.36;81.58;100266.41;5136680;27;20042;-68
2023/01/13 11:19:19;;;;;;;19.08;11.00;;;;;;;11.49;81.65;100258.91;5137814;27;20080;-69
2023/01/13 11:22:04;;;;;;;17.83;11.18;;;;;;;11.58;80.93;100257.97;5137509;27;20102;-69
2023/01/13 11:24:41;;;;;;;33.80;16.23;;;;;;;11.56;80.63;100261.78;5134806;27;20076;-68
2023/01/13 11:27:11;;;;;;;17.85;10.68;;;;;;;11.62;80.10;100259.31;5137518;27;20047;-68
2023/01/13 11:29:52;;;;;;;17.27;11.32;;;;;;;11.43;81.98;100262.97;5137709;27;20043;-68
2023/01/13 11:32:20;;;;;;;20.92;12.05;;;;;;;11.40;81.51;100250.03;5136870;27;20043;-69
2023/01/13 11:34:51;;;;;;;17.90;11.35;;;;;;;11.44;81.99;100254.06;5143302;27;20050;-68
2023/01/13 11:37:27;;;;;;;19.67;11.52;;;;;;;11.51;80.90;100248.97;5137912;27;20250;-67
2023/01/13 11:40:02;;;;;;;21.58;11.95;;;;;;;11.57;80.86;100253.66;5137703;27;20043;-68
2023/01/13 11:42:40;;;;;;;16.95;11.13;;;;;;;11.60;80.85;100250.69;5137618;27;20115;-68
2023/01/13 11:45:27;;;;;;;17.45;11.15;;;;;;;11.65;81.51;100256.34;5136617;27;20035;-69
2023/01/13 11:47:56;;;;;;;18.58;11.73;;;;;;;11.56;81.52;100253.81;5137437;27;20051;-68
2023/01/13 11:50:41;;;;;;;19.30;11.65;;;;;;;11.52;80.51;100248.00;5140827;27;20103;-67
2023/01/13 11:53:45;;;;;;;19.02;11.27;;;;;;;11.40;83.00;100249.19;5141293;27;20049;-68
2023/01/13 11:56:48;;;;;;;17.13;10.98;;;;;;;11.50;81.56;100244.66;5140323;27;20106;-69
2023/01/13 11:59:19;;;;;;;18.10;11.15;;;;;;;11.45;82.03;100242.47;5140223;27;20035;-68
2023/01/13 12:01:59;;;;;;;19.00;11.57;;;;;;;11.51;80.76;100254.28;5140986;27;20329;-68
2023/01/13 12:04:30;;;;;;;20.48;11.82;;;;;;;11.45;81.54;100250.44;5140917;27;20038;-69
2023/01/13 12:07:22;;;;;;;17.90;11.30;;;;;;;11.05;82.57;100250.91;5140779;27;20050;-69
2023/01/13 12:09:50;;;;;;;17.58;11.68;;;;;;;11.16;82.01;100250.69;5110172;27;20095;-68
2023/01/13 12:12:33;;;;;;;20.20;12.23;;;;;;;11.25;81.01;100242.78;5140445;27;20043;-68
2023/01/13 12:15:20;;;;;;;18.67;11.43;;;;;;;11.20;80.69;100248.56;5122789;27;20366;-70
2023/01/13 12:18:27;;;;;;;20.98;12.40;;;;;;;11.23;82.33;100232.34;5140970;27;20551;-69
2023/01/13 12:20:59;;;;;;;19.42;11.63;;;;;;;11.31;81.59;100234.22;5106227;27;20051;-68
2023/01/13 12:23:48;;;;;;;22.08;12.38;;;;;;;11.17;82.80;100233.78;5140932;27;20031;-68
2023/01/13 12:26:15;;;;;;;20.45;12.68;;;;;;;11.22;83.41;100230.69;5101041;27;20053;-68
2023/01/13 12:28:52;;;;;;;18.13;11.45;;;;;;;11.27;83.19;100232.88;5140995;27;20228;-68